Time;durP1;ratioP1;P1;durP2;ratioP2;P2;SDS_P1;SDS_P2;PMS_P1;PMS_P2;Temp;Humidity;BMP_temperature;BMP_pressure;BME280_temperature;BME280_humidity;BME280_pressure;Samples;Min_cycle;Max_cycle;Signal;HPM_P1;HPM_P2
2023/01/05 00:01:27;;;;;;;35.25;5.75;;;;;;;9.52;100.00;101648.88;4954574;29;20027;-76
2023/01/05 00:03:55;;;;;;;27.05;5.03;;;;;;;9.42;100.00;101634.72;4954577;29;20493;-82
2023/01/05 00:06:21;;;;;;;29.08;6.35;;;;;;;9.57;100.00;101653.84;4954492;29;20054;-81
2023/01/05 00:08:46;;;;;;;30.10;6.35;;;;;;;9.55;100.00;101659.06;4954404;29;20482;-78
2023/01/05 00:22:29;;;;;;;23.20;4.82;;;;;;;9.32;100.00;101630.88;4954256;29;20042;-79
2023/01/05 00:25:05;;;;;;;27.70;4.95;;;;;;;9.34;100.00;101640.25;4954384;29;20039;-78
2023/01/05 00:27:31;;;;;;;27.58;6.22;;;;;;;9.23;100.00;101650.16;4954453;29;20035;-76
2023/01/05 00:29:57;;;;;;;28.92;5.82;;;;;;;9.17;100.00;101653.03;4954338;29;20035;-77
2023/01/05 00:32:23;;;;;;;26.35;5.53;;;;;;;9.12;100.00;101652.38;4954365;29;20073;-79
2023/01/05 00:34:49;;;;;;;30.50;6.30;;;;;;;9.04;100.00;101644.16;4954706;29;20398;-81
2023/01/05 00:37:16;;;;;;;27.73;5.43;;;;;;;9.05;100.00;101658.72;4954491;29;20043;-81
2023/01/05 00:39:41;;;;;;;27.70;5.13;;;;;;;9.05;100.00;101659.56;4954354;29;20024;-81
2023/01/05 00:42:07;;;;;;;29.98;5.47;;;;;;;9.04;100.00;101667.34;4954352;29;20442;-79
2023/01/05 00:44:32;;;;;;;25.92;5.25;;;;;;;9.02;100.00;101672.56;4954208;29;20566;-79
2023/01/05 00:46:57;;;;;;;24.33;6.18;;;;;;;8.90;100.00;101662.78;4954215;29;20051;-77
2023/01/05 00:49:23;;;;;;;26.80;5.25;;;;;;;8.97;100.00;101683.97;4954254;29;20028;-83
2023/01/05 00:51:49;;;;;;;27.92;5.85;;;;;;;8.94;100.00;101677.19;4954185;29;20058;-82
2023/01/05 00:54:14;;;;;;;25.45;5.57;;;;;;;8.89;100.00;101681.72;4954271;29;20177;-82
2023/01/05 00:56:39;;;;;;;24.42;5.47;;;;;;;8.75;100.00;101655.69;4954213;29;20026;-81
2023/01/05 00:59:04;;;;;;;25.60;5.88;;;;;;;8.64;100.00;101648.41;4956275;28;20094;-79
2023/01/05 01:01:30;;;;;;;26.63;6.10;;;;;;;8.73;100.00;101660.91;4957710;29;20475;-80
2023/01/05 01:03:55;;;;;;;28.55;5.75;;;;;;;8.68;100.00;101673.16;4957495;29;20537;-81
2023/01/05 01:06:21;;;;;;;29.33;6.53;;;;;;;8.48;100.00;101642.25;4957661;29;20055;-82
2023/01/05 01:08:47;;;;;;;31.23;5.25;;;;;;;8.60;100.00;101670.91;4957861;29;20027;-81
2023/01/05 01:11:15;;;;;;;27.27;5.00;;;;;;;8.57;100.00;101683.91;4957482;29;20368;-78
2023/01/05 01:13:40;;;;;;;26.45;5.85;;;;;;;8.52;100.00;101666.97;4957622;29;20027;-82
2023/01/05 01:16:11;;;;;;;27.38;4.95;;;;;;;8.54;100.00;101678.84;4957450;29;20026;-82
2023/01/05 01:18:36;;;;;;;32.27;5.97;;;;;;;8.36;100.00;101648.75;4957248;29;20023;-80
2023/01/05 01:21:02;;;;;;;27.48;5.28;;;;;;;8.50;100.00;101677.31;4957402;29;20038;-81
2023/01/05 01:23:27;;;;;;;34.42;5.72;;;;;;;8.49;100.00;101674.81;4957130;29;20027;-82
2023/01/05 01:25:53;;;;;;;28.30;5.80;;;;;;;8.45;100.00;101686.13;4939813;29;20047;-82
2023/01/05 01:28:18;;;;;;;24.02;5.50;;;;;;;8.38;100.00;101693.28;4957366;29;20034;-77
2023/01/05 01:30:43;;;;;;;27.27;5.85;;;;;;;8.38;100.00;101692.44;4957669;29;20035;-83
2023/01/05 01:33:09;;;;;;;33.05;5.90;;;;;;;8.38;100.00;101697.56;4957185;29;20118;-80
2023/01/05 01:35:37;;;;;;;29.45;6.70;;;;;;;8.22;100.00;101684.44;4957180;29;20042;-77
2023/01/05 01:38:03;;;;;;;38.33;6.63;;;;;;;7.95;100.00;101643.44;4957291;29;20023;-76
2023/01/05 01:40:28;;;;;;;31.42;5.82;;;;;;;8.24;100.00;101708.38;4957117;29;20110;-76
2023/01/05 01:42:54;;;;;;;25.13;5.40;;;;;;;8.17;100.00;101710.38;4957105;29;20038;-75
2023/01/05 01:45:23;;;;;;;27.33;6.15;;;;;;;8.24;100.00;101721.22;4956786;29;20023;-80
2023/01/05 01:47:59;;;;;;;33.90;6.32;;;;;;;8.13;100.00;101700.22;4956795;29;20111;-76
2023/01/05 01:50:35;;;;;;;24.50;5.35;;;;;;;8.29;100.00;101724.47;4957128;29;20067;-75
2023/01/05 01:53:05;;;;;;;37.78;8.00;;;;;;;8.25;100.00;101712.63;4956801;29;20062;-75
2023/01/05 01:55:32;;;;;;;34.08;6.78;;;;;;;8.33;100.00;101729.44;4956911;29;20378;-74
2023/01/05 01:57:59;;;;;;;23.67;5.25;;;;;;;8.21;100.00;101700.78;4956713;29;20098;-74
2023/01/05 02:00:24;;;;;;;29.77;6.45;;;;;;;8.41;100.00;101736.88;4956447;29;20574;-75
2023/01/05 02:02:53;;;;;;;31.17;5.95;;;;;;;8.44;100.00;101735.91;4956780;29;20110;-75
2023/01/05 02:05:20;;;;;;;27.65;5.43;;;;;;;8.34;100.00;101715.69;4956636;29;20039;-75
2023/01/05 02:07:47;;;;;;;28.85;5.57;;;;;;;8.39;100.00;101718.09;4956668;29;20435;-75
2023/01/05 02:10:17;;;;;;;32.50;5.53;;;;;;;8.56;100.00;101736.28;4955662;28;20028;-75
2023/01/05 02:13:26;;;;;;;31.58;6.03;;;;;;;8.52;100.00;101713.28;4956541;29;20379;-75
2023/01/05 02:16:06;;;;;;;34.90;6.35;;;;;;;8.72;100.00;101728.78;4956513;29;20031;-76
2023/01/05 02:18:58;;;;;;;30.95;5.93;;;;;;;8.77;100.00;101737.16;4956425;29;20038;-75
2023/01/05 02:21:29;;;;;;;29.63;5.63;;;;;;;8.76;100.00;101725.19;4956080;29;20467;-76
2023/01/05 02:24:06;;;;;;;31.67;6.45;;;;;;;8.84;100.00;101742.88;4956291;29;20364;-75
2023/01/05 02:27:00;;;;;;;30.88;5.90;;;;;;;8.87;100.00;101733.31;4956037;29;20044;-75
2023/01/05 02:29:54;;;;;;;29.58;4.78;;;;;;;8.94;100.00;101739.03;4955962;29;20024;-78
2023/01/05 02:32:41;;;;;;;30.50;6.43;;;;;;;8.95;100.00;101734.69;4956143;29;20035;-76
2023/01/05 02:35:33;;;;;;;30.30;5.63;;;;;;;8.97;100.00;101730.34;4955988;29;20023;-76
2023/01/05 02:38:10;;;;;;;25.10;4.55;;;;;;;8.99;100.00;101728.53;4947107;29;20043;-75
2023/01/05 02:40:40;;;;;;;23.15;6.22;;;;;;;9.00;100.00;101735.38;4956102;29;20113;-76
2023/01/05 02:43:08;;;;;;;30.42;5.97;;;;;;;9.01;100.00;101743.03;4955775;29;20028;-76
2023/01/05 02:45:33;;;;;;;32.80;5.93;;;;;;;8.97;100.00;101728.63;4955931;29;20031;-75
2023/01/05 02:47:59;;;;;;;31.40;6.82;;;;;;;9.07;100.00;101744.53;4955919;29;20078;-76
2023/01/05 02:50:43;;;;;;;25.30;5.53;;;;;;;9.10;100.00;101744.38;4938402;29;20043;-76
2023/01/05 02:53:24;;;;;;;28.52;6.15;;;;;;;9.10;100.00;101739.22;4955410;29;20031;-76
2023/01/05 02:55:59;;;;;;;32.30;5.47;;;;;;;9.08;100.00;101741.88;4955421;29;20019;-75
2023/01/05 02:58:32;;;;;;;31.42;6.78;;;;;;;9.04;100.00;101722.28;4955627;29;20035;-75
2023/01/05 03:01:20;;;;;;;28.95;5.45;;;;;;;9.07;100.00;101729.06;4955535;29;20055;-76
2023/01/05 03:03:58;;;;;;;24.85;5.25;;;;;;;9.22;100.00;101736.13;4955010;29;20046;-76
2023/01/05 03:06:45;;;;;;;31.15;5.60;;;;;;;9.11;100.00;101715.13;4955461;29;20534;-76
2023/01/05 03:09:14;;;;;;;31.33;6.85;;;;;;;9.16;100.00;101726.94;4955376;29;20031;-82
2023/01/05 03:14:44;;;;;;;28.52;7.00;;;;;;;9.30;100.00;101751.28;4955619;29;20067;-83
2023/01/05 03:17:13;;;;;;;31.60;5.88;;;;;;;9.30;100.00;101751.28;4955365;29;20035;-78
2023/01/05 03:19:42;;;;;;;28.70;5.63;;;;;;;9.28;100.00;101747.94;4955273;29;20030;-83
2023/01/05 03:36:57;;;;;;;28.55;5.78;;;;;;;9.37;100.00;101770.72;4955403;29;20041;-83
2023/01/05 03:39:25;;;;;;;31.20;6.18;;;;;;;9.26;100.00;101750.56;4954686;29;20418;-80
2023/01/05 03:41:51;;;;;;;27.95;5.65;;;;;;;9.36;100.00;101761.31;4955117;29;20386;-82
2023/01/05 03:44:16;;;;;;;24.88;5.78;;;;;;;9.22;100.00;101743.84;4955018;29;20028;-82
2023/01/05 03:46:42;;;;;;;31.85;6.57;;;;;;;9.29;100.00;101742.69;4954879;29;20025;-79
2023/01/05 03:49:07;;;;;;;30.45;5.95;;;;;;;9.38;100.00;101760.34;4955007;29;20059;-81
2023/01/05 03:51:33;;;;;;;30.75;6.15;;;;;;;9.41;100.00;101755.06;4954831;29;20057;-77
2023/01/05 03:53:58;;;;;;;27.80;6.20;;;;;;;9.38;100.00;101752.63;4954444;29;20035;-81
2023/01/05 03:56:23;;;;;;;25.52;5.20;;;;;;;9.27;100.00;101743.69;4954838;29;20031;-82
2023/01/05 03:58:48;;;;;;;28.67;5.53;;;;;;;9.22;100.00;101733.53;4954993;29;20031;-83
2023/01/05 04:01:14;;;;;;;27.13;6.25;;;;;;;9.37;100.00;101752.69;4954821;29;20027;-83
2023/01/05 04:03:40;;;;;;;27.92;5.70;;;;;;;9.43;100.00;101762.72;4954791;29;20098;-82
2023/01/05 04:06:05;;;;;;;28.83;5.90;;;;;;;9.43;100.00;101768.72;4954775;29;20047;-82
2023/01/05 04:08:31;;;;;;;26.38;5.57;;;;;;;9.44;100.00;101761.84;4954499;29;20050;-83
2023/01/05 04:10:56;;;;;;;30.95;5.68;;;;;;;9.43;100.00;101758.41;4954430;29;20114;-81
2023/01/05 04:13:21;;;;;;;31.27;5.82;;;;;;;9.46;100.00;101758.28;4954777;29;20102;-82
2023/01/05 04:15:47;;;;;;;27.20;5.55;;;;;;;9.24;100.00;101724.00;4937489;29;20024;-83
2023/01/05 04:18:12;;;;;;;29.23;5.53;;;;;;;9.18;100.00;101716.56;4954562;29;20023;-83
2023/01/05 04:20:37;;;;;;;31.08;6.38;;;;;;;9.43;100.00;101752.41;4954410;29;20071;-82
2023/01/05 04:23:03;;;;;;;31.67;6.40;;;;;;;9.45;100.00;101761.78;4954548;29;20024;-81
2023/01/05 04:25:28;;;;;;;36.70;6.68;;;;;;;9.43;100.00;101740.34;4954013;29;20043;-83
2023/01/05 04:27:53;;;;;;;27.45;6.60;;;;;;;9.47;100.00;101769.44;4954662;29;20110;-81
2023/01/05 04:30:20;;;;;;;32.50;5.72;;;;;;;9.47;100.00;101762.53;4953182;29;20027;-82
2023/01/05 04:32:45;;;;;;;28.35;5.63;;;;;;;9.48;100.00;101764.19;4954436;28;20490;-82
2023/01/05 04:35:11;;;;;;;27.02;5.18;;;;;;;9.46;100.00;101760.84;4958137;29;20038;-82
2023/01/05 04:37:36;;;;;;;28.00;5.22;;;;;;;9.47;100.00;101765.09;4958148;29;20031;-84
2023/01/05 04:40:02;;;;;;;35.13;7.53;;;;;;;9.44;100.00;101759.25;4957835;29;20105;-82
2023/01/05 04:42:27;;;;;;;36.90;7.90;;;;;;;9.31;100.00;101756.34;4958001;29;20058;-82
2023/01/05 04:44:52;;;;;;;29.40;5.63;;;;;;;9.46;100.00;101770.34;4958056;29;20027;-83
2023/01/05 04:47:18;;;;;;;32.05;6.75;;;;;;;9.44;100.00;101757.53;4958179;29;20030;-79
2023/01/05 04:49:43;;;;;;;35.03;6.47;;;;;;;9.35;100.00;101742.44;4957901;29;20027;-83
2023/01/05 04:52:09;;;;;;;38.70;6.47;;;;;;;9.45;100.00;101760.94;4940854;29;20031;-83
2023/01/05 04:54:34;;;;;;;36.58;6.68;;;;;;;9.45;100.00;101766.09;4957912;29;20031;-82
2023/01/05 04:57:04;;;;;;;30.45;5.88;;;;;;;9.37;100.00;101752.69;4957728;29;20479;-76
2023/01/05 04:59:29;;;;;;;28.63;6.18;;;;;;;9.43;100.00;101776.44;4958021;29;20086;-77
2023/01/05 05:01:54;;;;;;;35.22;6.65;;;;;;;9.45;100.00;101773.81;4957718;29;20423;-77
2023/01/05 05:04:20;;;;;;;27.70;5.88;;;;;;;9.33;100.00;101751.13;4940261;29;20039;-83
2023/01/05 05:06:45;;;;;;;37.25;7.28;;;;;;;9.31;100.00;101751.19;4957711;29;20028;-81
2023/01/05 05:09:10;;;;;;;31.98;5.88;;;;;;;9.47;100.00;101782.31;4957530;29;20824;-76
2023/01/05 05:11:36;;;;;;;32.88;5.78;;;;;;;9.46;100.00;101786.66;4957397;29;20506;-77
2023/01/05 05:14:01;;;;;;;30.27;5.03;;;;;;;9.36;100.00;101772.47;4957523;29;20035;-76
2023/01/05 05:16:26;;;;;;;38.60;6.68;;;;;;;9.49;100.00;101794.25;4957498;29;20050;-77
2023/01/05 05:18:52;;;;;;;29.38;6.70;;;;;;;9.48;100.00;101797.72;4957427;29;20035;-77
2023/01/05 05:21:17;;;;;;;29.30;6.15;;;;;;;9.47;100.00;101797.78;4957720;29;20034;-83
2023/01/05 05:23:42;;;;;;;32.95;6.82;;;;;;;9.48;100.00;101794.31;4957494;29;20031;-84
2023/01/05 05:26:07;;;;;;;33.65;7.03;;;;;;;9.52;100.00;101800.16;4956994;29;20055;-84
2023/01/05 05:28:35;;;;;;;25.58;5.47;;;;;;;9.51;100.00;101801.06;4957080;29;20035;-77
2023/01/05 05:31:00;;;;;;;28.85;5.55;;;;;;;9.53;100.00;101801.84;4957100;29;20031;-83
2023/01/05 05:33:26;;;;;;;34.90;5.43;;;;;;;9.45;100.00;101782.41;4957574;29;20027;-83
2023/01/05 05:35:51;;;;;;;31.08;5.57;;;;;;;9.51;100.00;101804.47;4957557;29;20024;-75
2023/01/05 05:38:17;;;;;;;24.33;5.18;;;;;;;9.56;100.00;101809.47;4957177;29;20034;-76
2023/01/05 05:40:42;;;;;;;26.95;5.55;;;;;;;9.57;100.00;101811.13;4956910;29;20039;-83
2023/01/05 05:43:08;;;;;;;32.13;6.78;;;;;;;9.56;100.00;101812.03;4956975;29;20086;-81
2023/01/05 05:45:33;;;;;;;30.45;6.47;;;;;;;9.58;100.00;101815.38;4955687;28;20023;-83
2023/01/05 05:48:00;;;;;;;26.75;5.68;;;;;;;9.58;100.00;101820.53;4957279;29;20027;-84
2023/01/05 05:50:25;;;;;;;35.60;6.55;;;;;;;9.58;100.00;101820.53;4957204;29;20043;-81
2023/01/05 05:52:51;;;;;;;26.95;6.80;;;;;;;9.58;100.00;101817.97;4957538;29;20035;-76
2023/01/05 05:55:16;;;;;;;36.03;6.10;;;;;;;9.57;100.00;101821.44;4957144;29;20027;-76
2023/01/05 05:57:41;;;;;;;26.08;6.10;;;;;;;9.57;100.00;101839.50;4956923;29;20035;-77
2023/01/05 06:00:07;;;;;;;29.90;5.68;;;;;;;9.57;100.00;101835.16;4958492;29;20122;-82
2023/01/05 06:02:32;;;;;;;37.00;6.65;;;;;;;9.56;100.00;101848.97;4963779;29;20078;-76
2023/01/05 06:04:58;;;;;;;27.15;5.55;;;;;;;9.53;100.00;101835.34;4957873;29;20606;-81
2023/01/05 06:07:23;;;;;;;29.63;6.15;;;;;;;9.57;100.00;101852.38;4956697;29;20035;-82
2023/01/05 06:09:49;;;;;;;29.63;6.60;;;;;;;9.48;100.00;101832.97;4956760;29;20055;-82
2023/01/05 06:12:14;;;;;;;34.67;7.45;;;;;;;9.56;100.00;101835.25;4956175;29;20035;-83
2023/01/05 06:14:39;;;;;;;32.55;6.70;;;;;;;9.54;100.00;101855.94;4956231;29;20027;-76
2023/01/05 06:17:05;;;;;;;30.08;5.55;;;;;;;9.54;100.00;101855.06;4956633;29;20031;-76
2023/01/05 06:19:30;;;;;;;30.40;4.93;;;;;;;9.52;100.00;101854.31;4956631;29;20039;-77
2023/01/05 06:21:55;;;;;;;32.15;6.22;;;;;;;9.42;100.00;101852.09;4956461;29;20126;-77
2023/01/05 06:24:20;;;;;;;40.60;6.82;;;;;;;9.38;100.00;101866.03;4956410;29;20051;-76
2023/01/05 06:26:46;;;;;;;36.35;6.57;;;;;;;9.36;100.00;101867.03;4955679;29;20145;-75
2023/01/05 06:29:11;;;;;;;32.08;6.60;;;;;;;9.33;100.00;101870.53;4956086;29;20156;-76
2023/01/05 06:31:36;;;;;;;35.22;6.35;;;;;;;9.25;100.00;101867.47;4955898;29;20031;-79
2023/01/05 06:34:02;;;;;;;38.15;8.13;;;;;;;9.18;100.00;101848.81;4956131;29;20059;-75
2023/01/05 06:36:27;;;;;;;33.55;6.03;;;;;;;9.30;100.00;101873.25;4956117;29;20105;-79
2023/01/05 06:38:53;;;;;;;27.75;5.90;;;;;;;9.30;100.00;101875.00;4956190;29;20102;-76
2023/01/05 06:41:18;;;;;;;33.40;6.50;;;;;;;9.32;100.00;101891.22;4955838;29;20026;-82
2023/01/05 06:43:43;;;;;;;31.13;6.97;;;;;;;9.23;100.00;101876.97;4955703;29;20505;-82
2023/01/05 06:46:09;;;;;;;34.60;7.22;;;;;;;9.25;100.00;101882.91;4955908;29;20023;-85
2023/01/05 06:48:34;;;;;;;40.92;8.18;;;;;;;9.29;100.00;101894.78;4956001;29;20114;-83
2023/01/05 06:50:59;;;;;;;34.67;7.03;;;;;;;9.21;100.00;101871.03;4955698;29;20434;-82
2023/01/05 06:53:25;;;;;;;35.05;6.60;;;;;;;9.31;100.00;101898.13;4955884;29;20526;-83
2023/01/05 06:55:50;;;;;;;34.10;6.85;;;;;;;9.35;100.00;101904.84;4955239;28;20023;-84
2023/01/05 06:58:15;;;;;;;39.13;6.82;;;;;;;9.33;100.00;101909.19;4955621;29;20035;-84
2023/01/05 07:00:41;;;;;;;35.30;6.85;;;;;;;9.34;100.00;101912.63;4955723;29;20031;-84
2023/01/05 07:03:06;;;;;;;29.27;6.70;;;;;;;9.36;100.00;101914.25;4955338;29;20042;-84
2023/01/05 07:05:32;;;;;;;32.38;7.18;;;;;;;9.36;100.00;101906.53;4955846;29;20532;-84
2023/01/05 07:07:57;;;;;;;33.75;6.32;;;;;;;9.34;100.00;101902.31;4955426;29;20023;-82
2023/01/05 07:10:22;;;;;;;38.35;7.30;;;;;;;9.36;100.00;101911.69;4955531;29;20042;-83
2023/01/05 07:12:48;;;;;;;34.15;7.05;;;;;;;9.35;100.00;101915.16;4955259;29;20031;-83
2023/01/05 07:15:13;;;;;;;40.05;6.93;;;;;;;9.34;100.00;101916.06;4938373;29;20051;-84
2023/01/05 07:17:38;;;;;;;31.23;6.30;;;;;;;9.28;100.00;101918.88;4955250;29;20531;-85
2023/01/05 07:20:05;;;;;;;30.95;6.10;;;;;;;9.28;100.00;101913.72;4955436;29;20360;-83
2023/01/05 07:22:30;;;;;;;39.05;8.15;;;;;;;9.06;100.00;101882.81;4955053;29;20035;-85
2023/01/05 07:24:58;;;;;;;29.92;6.13;;;;;;;9.26;100.00;101923.25;4955238;29;20183;-82
2023/01/05 07:27:24;;;;;;;34.83;6.20;;;;;;;9.26;100.00;101931.00;4955168;29;20023;-82
2023/01/05 07:29:49;;;;;;;34.55;5.97;;;;;;;9.14;100.00;101903.97;4955255;29;20110;-83
2023/01/05 07:32:14;;;;;;;30.48;6.88;;;;;;;9.27;100.00;101924.09;4955070;29;20071;-87
2023/01/05 07:34:40;;;;;;;31.88;6.10;;;;;;;9.29;100.00;101928.28;4955005;29;20038;-79
2023/01/05 07:37:05;;;;;;;31.45;6.35;;;;;;;9.33;100.00;101931.56;4954990;29;20031;-81
2023/01/05 07:39:31;;;;;;;30.98;6.22;;;;;;;9.33;100.00;101931.56;4955048;29;20443;-79
2023/01/05 07:41:56;;;;;;;34.25;6.28;;;;;;;9.31;100.00;101934.22;4954836;29;20023;-80
2023/01/05 07:44:21;;;;;;;37.92;6.70;;;;;;;9.28;100.00;101931.75;4955164;29;20391;-80
2023/01/05 07:46:47;;;;;;;33.83;7.30;;;;;;;9.33;100.00;101942.72;4954834;29;20386;-79
2023/01/05 07:49:12;;;;;;;29.85;6.40;;;;;;;9.35;100.00;101946.09;4954864;29;20125;-81
2023/01/05 07:51:38;;;;;;;39.65;7.03;;;;;;;9.34;100.00;101943.53;4954644;29;20034;-79
2023/01/05 07:54:03;;;;;;;31.13;6.15;;;;;;;9.25;100.00;101928.47;4955047;29;20031;-82
2023/01/05 07:56:28;;;;;;;32.42;5.78;;;;;;;9.33;100.00;101942.72;4954778;29;20454;-82
2023/01/05 07:58:54;;;;;;;37.85;6.90;;;;;;;9.02;100.00;101890.72;4938000;29;20035;-84
2023/01/05 08:01:19;;;;;;;33.47;7.10;;;;;;;9.02;100.00;101903.59;4936451;29;20025;-77
2023/01/05 08:03:45;;;;;;;39.78;6.63;;;;;;;9.29;100.00;101961.78;4935560;29;20039;-75
2023/01/05 08:06:13;;;;;;;38.33;7.20;;;;;;;9.29;100.00;101959.22;4935475;29;20491;-77
2023/01/05 08:08:39;;;;;;;43.22;7.43;;;;;;;9.32;100.00;101968.56;4934773;29;20027;-74
2023/01/05 08:11:09;;;;;;;30.90;6.53;;;;;;;9.33;100.00;101965.06;4935358;29;20038;-79
2023/01/05 08:16:19;;;;;;;32.15;6.72;;;;;;;9.30;100.00;101960.88;4935604;29;20047;-76
2023/01/05 08:18:44;;;;;;;29.75;6.78;;;;;;;9.37;100.00;101971.81;4934941;29;20776;-82
2023/01/05 08:21:10;;;;;;;35.15;6.78;;;;;;;9.38;100.00;101974.31;4918283;29;20040;-77
2023/01/05 08:23:36;;;;;;;34.80;7.22;;;;;;;9.30;100.00;101972.94;4935473;29;20472;-77
2023/01/05 08:26:22;;;;;;;34.40;6.75;;;;;;;9.42;100.00;101982.75;4935102;29;20054;-77
2023/01/05 08:28:48;;;;;;;39.95;6.50;;;;;;;9.26;100.00;101954.19;4934703;29;20035;-80
2023/01/05 08:31:20;;;;;;;35.83;8.60;;;;;;;9.27;100.00;101953.28;4934981;29;20063;-79
2023/01/05 08:33:45;;;;;;;38.97;7.30;;;;;;;9.45;100.00;101977.50;4934977;29;20028;-79
2023/01/05 08:36:14;;;;;;;35.38;6.88;;;;;;;9.43;100.00;101985.28;4935631;29;20039;-77
2023/01/05 08:38:46;;;;;;;37.20;6.95;;;;;;;9.42;100.00;101986.16;4935355;29;20023;-79
2023/01/05 08:41:14;;;;;;;28.83;5.82;;;;;;;9.44;100.00;102002.44;4935229;29;20056;-80
2023/01/05 08:43:39;;;;;;;31.58;6.60;;;;;;;9.38;100.00;101987.22;4934917;29;20027;-80
2023/01/05 08:46:04;;;;;;;37.80;8.20;;;;;;;9.52;100.00;102003.84;4935022;29;20482;-77
2023/01/05 08:48:30;;;;;;;35.78;7.03;;;;;;;9.51;100.00;102005.59;4935182;29;20075;-81
2023/01/05 08:51:02;;;;;;;38.78;6.53;;;;;;;9.47;100.00;102001.47;4935046;29;20020;-79
2023/01/05 08:53:27;;;;;;;34.95;7.15;;;;;;;9.58;100.00;102013.94;4935002;29;20024;-77
2023/01/05 08:55:53;;;;;;;37.13;7.53;;;;;;;9.60;100.00;102014.72;4935170;29;20059;-81
2023/01/05 08:58:18;;;;;;;31.63;7.32;;;;;;;9.48;100.00;101998.84;4935078;29;20027;-78
2023/01/05 09:00:43;;;;;;;29.48;6.38;;;;;;;9.58;100.00;102013.94;4934726;29;20031;-78
2023/01/05 09:03:08;;;;;;;32.60;7.82;;;;;;;9.62;100.00;102021.47;4934992;29;20058;-80
2023/01/05 09:05:34;;;;;;;39.72;6.40;;;;;;;9.74;100.00;102031.34;4935181;29;20031;-81
2023/01/05 09:07:59;;;;;;;35.50;7.28;;;;;;;9.64;100.00;102003.41;4934993;29;20015;-78
2023/01/05 09:10:24;;;;;;;36.50;7.30;;;;;;;9.76;100.00;102036.44;4934814;29;20028;-78
2023/01/05 09:12:50;;;;;;;35.53;6.97;;;;;;;9.63;100.00;102012.84;4934733;29;20042;-76
2023/01/05 09:15:15;;;;;;;28.92;6.00;;;;;;;9.79;100.00;102038.88;4934668;29;20035;-80
2023/01/05 09:17:40;;;;;;;35.50;7.55;;;;;;;9.83;100.00;102044.72;4934901;29;20027;-76
2023/01/05 09:20:07;;;;;;;32.33;6.55;;;;;;;9.84;100.00;102036.13;4936912;29;20024;-76
2023/01/05 09:22:34;;;;;;;32.92;6.43;;;;;;;9.75;100.00;102027.84;4938458;29;20027;-80
2023/01/05 09:25:00;;;;;;;32.58;6.22;;;;;;;9.91;100.00;102045.28;4937871;29;20042;-78
2023/01/05 09:27:25;;;;;;;34.15;7.03;;;;;;;9.93;100.00;102048.63;4938263;29;20467;-79
2023/01/05 09:29:51;;;;;;;30.55;5.75;;;;;;;9.92;100.00;102042.63;4937852;29;20044;-79
2023/01/05 09:32:16;;;;;;;33.38;6.40;;;;;;;9.97;100.00;102053.63;4953937;29;20034;-78
2023/01/05 09:34:41;;;;;;;39.53;8.40;;;;;;;9.85;100.00;102041.22;4957057;29;20070;-78
2023/01/05 09:37:07;;;;;;;25.85;5.65;;;;;;;9.92;100.00;102049.53;4957035;29;20046;-76
2023/01/05 09:39:32;;;;;;;32.03;7.28;;;;;;;9.95;100.00;102054.59;4957043;29;20510;-76
2023/01/05 09:42:04;;;;;;;35.80;7.53;;;;;;;9.99;100.00;102053.53;4956962;29;20066;-79
2023/01/05 09:44:31;;;;;;;34.80;6.65;;;;;;;10.02;100.00;102068.88;4956669;29;20024;-78
2023/01/05 09:47:20;;;;;;;34.00;6.70;;;;;;;9.93;100.00;102048.63;4955431;29;20027;-71
2023/01/05 09:49:48;;;;;;;33.65;7.15;;;;;;;10.02;100.00;102067.16;4947073;29;20035;-75
2023/01/05 09:52:13;;;;;;;33.03;6.75;;;;;;;10.01;100.00;102070.63;4956880;29;20086;-76
2023/01/05 09:54:39;;;;;;;34.70;6.28;;;;;;;9.96;100.00;102075.16;4956700;29;20031;-74
2023/01/05 09:57:20;;;;;;;37.53;6.97;;;;;;;9.98;100.00;102086.25;4939139;29;20047;-74
2023/01/05 09:59:49;;;;;;;30.10;6.53;;;;;;;9.90;100.00;102065.06;4956593;29;20375;-74
2023/01/05 10:02:18;;;;;;;36.97;7.20;;;;;;;10.03;100.00;102083.50;4956612;29;20064;-75
2023/01/05 10:04:45;;;;;;;35.15;7.13;;;;;;;10.02;100.00;102085.22;4956795;29;20364;-76
2023/01/05 10:07:46;;;;;;;38.08;6.97;;;;;;;9.91;100.00;102064.16;4956746;29;20035;-76
2023/01/05 10:10:30;;;;;;;41.60;7.78;;;;;;;10.12;100.00;102079.69;4952277;29;20074;-75
2023/01/05 10:13:02;;;;;;;31.95;6.40;;;;;;;10.13;100.00;102084.81;4956436;29;20034;-74
2023/01/05 10:15:50;;;;;;;37.15;6.95;;;;;;;10.25;100.00;102088.66;4956277;29;20035;-75
2023/01/05 10:18:21;;;;;;;35.03;6.53;;;;;;;10.29;100.00;102087.59;4955723;29;20015;-74
2023/01/05 10:21:12;;;;;;;36.55;6.75;;;;;;;10.34;100.00;102089.09;4956223;29;20513;-74
2023/01/05 10:24:06;;;;;;;40.45;7.47;;;;;;;10.50;100.00;102091.03;4897112;29;20041;-76
2023/01/05 10:26:45;;;;;;;30.67;7.30;;;;;;;10.47;98.90;102097.16;4896581;29;20045;-74
2023/01/05 10:29:21;;;;;;;29.88;6.13;;;;;;;10.48;99.75;102093.69;4896897;29;20048;-74
2023/01/05 10:32:14;;;;;;;37.72;6.80;;;;;;;10.55;99.95;102102.84;4896257;29;20047;-73
2023/01/05 10:34:58;;;;;;;31.48;7.07;;;;;;;10.61;99.47;102105.16;4896903;29;20037;-72
2023/01/05 10:37:44;;;;;;;28.27;7.38;;;;;;;10.56;98.88;102086.44;4896808;29;20148;-73
2023/01/05 10:40:16;;;;;;;32.40;6.13;;;;;;;10.47;99.31;102084.25;4896661;29;20069;-73
2023/01/05 10:43:06;;;;;;;33.72;6.22;;;;;;;10.51;98.78;102101.28;4896759;29;20040;-73
2023/01/05 10:45:31;;;;;;;35.80;8.00;;;;;;;10.37;98.88;102079.53;4896645;29;20036;-74
2023/01/05 10:47:58;;;;;;;34.35;6.72;;;;;;;10.51;99.57;102105.63;4896643;29;20048;-74
2023/01/05 10:50:35;;;;;;;32.83;7.00;;;;;;;10.54;99.24;102106.34;4896551;29;20051;-74
2023/01/05 10:53:09;;;;;;;33.75;6.75;;;;;;;10.53;99.38;102117.59;4896281;29;20059;-75
2023/01/05 10:55:44;;;;;;;26.15;6.22;;;;;;;10.48;99.35;102109.16;4896489;29;20037;-75
2023/01/05 10:58:24;;;;;;;37.28;7.93;;;;;;;10.25;99.59;102083.47;4896426;29;20037;-74
2023/01/05 11:00:52;;;;;;;37.42;6.82;;;;;;;10.41;99.20;102107.75;4931573;29;20043;-76
2023/01/05 11:03:20;;;;;;;37.75;8.00;;;;;;;10.37;99.40;102111.38;4955569;29;20447;-77
2023/01/05 11:05:47;;;;;;;33.65;8.00;;;;;;;10.23;99.66;102095.63;4955519;29;20023;-76
2023/01/05 11:08:20;;;;;;;34.63;6.97;;;;;;;10.35;99.78;102113.19;4955403;29;20078;-76
2023/01/05 11:10:54;;;;;;;33.88;7.45;;;;;;;10.39;99.93;102116.47;4955362;29;20086;-76
2023/01/05 11:13:33;;;;;;;34.92;6.68;;;;;;;10.44;99.72;102119.72;4955424;29;20478;-76
2023/01/05 11:16:07;;;;;;;34.10;6.55;;;;;;;10.29;99.86;102087.59;4953911;29;20082;-73
2023/01/05 11:18:52;;;;;;;33.42;9.43;;;;;;;10.51;99.17;102110.78;4956170;29;20028;-77
2023/01/05 11:21:19;;;;;;;28.10;6.93;;;;;;;10.52;98.40;102110.75;4955753;29;20395;-75
2023/01/05 11:23:48;;;;;;;33.85;6.85;;;;;;;10.54;99.41;102106.34;4955218;29;20078;-78
2023/01/05 11:26:21;;;;;;;42.90;7.25;;;;;;;10.56;98.77;102096.78;4954996;29;20047;-76
2023/01/05 11:29:08;;;;;;;31.30;6.72;;;;;;;10.70;98.71;102113.41;4937568;29;20054;-76
2023/01/05 11:31:36;;;;;;;37.15;8.75;;;;;;;10.78;98.41;102098.44;4954925;29;20360;-78
2023/01/05 11:34:32;;;;;;;33.85;7.07;;;;;;;10.83;98.06;102097.34;4954022;29;20029;-74
2023/01/05 11:37:01;;;;;;;31.75;8.00;;;;;;;10.84;97.89;102090.44;4955817;29;20578;-74
2023/01/05 11:39:38;;;;;;;31.80;6.78;;;;;;;10.75;97.55;102067.56;4955462;29;20019;-78
2023/01/05 11:42:08;;;;;;;30.05;6.70;;;;;;;11.00;97.01;102091.41;4954518;28;20035;-76
2023/01/05 11:44:34;;;;;;;31.25;7.40;;;;;;;11.06;96.59;102098.06;4954230;29;20031;-75
2023/01/05 11:47:00;;;;;;;29.67;6.00;;;;;;;11.07;96.42;102094.56;4954732;29;20046;-78
2023/01/05 11:49:25;;;;;;;35.92;7.78;;;;;;;10.94;95.92;102078.78;4954880;29;20468;-77
2023/01/05 11:51:51;;;;;;;31.40;6.20;;;;;;;10.94;96.07;102085.69;4954824;29;20074;-78
2023/01/05 11:54:38;;;;;;;24.70;6.22;;;;;;;10.94;96.45;102096.88;4954771;29;20140;-78
2023/01/05 11:57:19;;;;;;;27.67;6.97;;;;;;;10.88;96.50;102084.22;4954673;29;20055;-77